X  Schließen METAR Luftfahrt Wetterdaten     EDJA Memmingen Allgau Airport
Temperatur
37°F Temperatur
37°F Taupunkt
100% Feuchtigkeit



Wind
0 MPS
0 KM/S
0 M/S
0 KTS



Kein Wind
N
Aktuelle Wetterlage

Bewölkt Bewölkt
Luftdruck 1005.08 (hPa) - 29.68 (inHg)
Sichtweite 4.3 (Meile) - 7 (Km)
Flughafen
Flughafen Code EDJA

Position : Memmingen Allgau Airport
Entfernung: 50 (mi)

Metar:
EDJA 020220Z AUTO 00000KT 7000 // OVC093/// 03/03 Q1005

Zeit: 02-03-2024 03:20 CET